sensor_id;sensor_type;location;lat;lon;timestamp;pressure;altitude;pressure_sealevel;temperature;humidity
73679;BME280;61978;52.742;16.962;2022-10-30T00:00:51;101377.97;;;16.09;100.00
73679;BME280;61978;52.742;16.962;2022-10-30T00:03:18;101378.58;;;16.11;100.00
73679;BME280;61978;52.742;16.962;2022-10-30T00:05:47;101375.02;;;16.04;100.00
73679;BME280;61978;52.742;16.962;2022-10-30T00:08:17;101368.34;;;15.87;100.00
73679;BME280;61978;52.742;16.962;2022-10-30T00:10:54;101369.91;;;15.79;100.00
73679;BME280;61978;52.742;16.962;2022-10-30T00:13:20;101368.76;;;15.71;100.00
73679;BME280;61978;52.742;16.962;2022-10-30T00:15:50;101369.31;;;15.53;100.00
73679;BME280;61978;52.742;16.962;2022-10-30T00:18:17;101375.30;;;15.42;100.00
73679;BME280;61978;52.742;16.962;2022-10-30T00:20:43;101374.16;;;15.40;100.00
73679;BME280;61978;52.742;16.962;2022-10-30T00:23:10;101376.76;;;15.44;100.00
73679;BME280;61978;52.742;16.962;2022-10-30T00:25:37;101373.35;;;15.46;100.00
73679;BME280;61978;52.742;16.962;2022-10-30T00:28:05;101370.27;;;15.49;100.00
73679;BME280;61978;52.742;16.962;2022-10-30T00:30:32;101369.89;;;15.42;100.00
73679;BME280;61978;52.742;16.962;2022-10-30T00:32:59;101362.80;;;15.34;100.00
73679;BME280;61978;52.742;16.962;2022-10-30T00:35:26;101359.95;;;15.25;100.00
73679;BME280;61978;52.742;16.962;2022-10-30T00:37:54;101356.44;;;15.31;100.00
73679;BME280;61978;52.742;16.962;2022-10-30T00:40:20;101352.56;;;15.23;100.00
73679;BME280;61978;52.742;16.962;2022-10-30T00:42:48;101350.27;;;15.20;100.00
73679;BME280;61978;52.742;16.962;2022-10-30T00:45:16;101356.08;;;15.24;100.00
73679;BME280;61978;52.742;16.962;2022-10-30T00:47:50;101351.08;;;15.21;100.00
73679;BME280;61978;52.742;16.962;2022-10-30T00:50:25;101352.34;;;15.25;100.00
73679;BME280;61978;52.742;16.962;2022-10-30T00:52:55;101345.80;;;15.23;100.00
73679;BME280;61978;52.742;16.962;2022-10-30T00:55:31;101339.70;;;15.08;100.00
73679;BME280;61978;52.742;16.962;2022-10-30T00:57:57;101343.62;;;14.99;100.00
73679;BME280;61978;52.742;16.962;2022-10-30T01:00:26;101342.08;;;15.07;100.00
73679;BME280;61978;52.742;16.962;2022-10-30T01:02:55;101347.64;;;15.16;100.00
73679;BME280;61978;52.742;16.962;2022-10-30T01:05:24;101342.55;;;15.17;100.00
73679;BME280;61978;52.742;16.962;2022-10-30T01:07:53;101333.30;;;15.22;100.00
73679;BME280;61978;52.742;16.962;2022-10-30T01:10:20;101336.08;;;15.18;100.00
73679;BME280;61978;52.742;16.962;2022-10-30T01:12:49;101328.29;;;15.19;100.00
73679;BME280;61978;52.742;16.962;2022-10-30T01:15:19;101334.11;;;15.16;100.00
73679;BME280;61978;52.742;16.962;2022-10-30T01:21:06;101328.74;;;14.99;100.00
73679;BME280;61978;52.742;16.962;2022-10-30T01:23:36;101326.84;;;14.99;100.00
73679;BME280;61978;52.742;16.962;2022-10-30T01:26:13;101323.73;;;14.96;100.00
73679;BME280;61978;52.742;16.962;2022-10-30T01:34:18;101324.66;;;14.92;100.00
73679;BME280;61978;52.742;16.962;2022-10-30T01:39:35;101323.08;;;14.94;100.00
73679;BME280;61978;52.742;16.962;2022-10-30T01:44:53;101323.33;;;14.99;100.00
73679;BME280;61978;52.742;16.962;2022-10-30T01:50:14;101342.59;;;15.07;100.00
73679;BME280;61978;52.742;16.962;2022-10-30T01:56:01;101333.89;;;15.18;100.00
73679;BME280;61978;52.742;16.962;2022-10-30T01:58:22;101336.00;;;15.22;100.00
73679;BME280;61978;52.742;16.962;2022-10-30T02:00:52;101336.95;;;15.25;100.00
73679;BME280;61978;52.742;16.962;2022-10-30T02:03:21;101343.98;;;15.13;100.00
73679;BME280;61978;52.742;16.962;2022-10-30T02:05:50;101351.08;;;14.97;100.00
73679;BME280;61978;52.742;16.962;2022-10-30T02:08:19;101337.01;;;14.91;100.00
73679;BME280;61978;52.742;16.962;2022-10-30T02:10:50;101334.41;;;14.87;100.00
73679;BME280;61978;52.742;16.962;2022-10-30T02:13:19;101326.44;;;14.96;100.00
73679;BME280;61978;52.742;16.962;2022-10-30T02:15:48;101328.09;;;14.97;100.00
73679;BME280;61978;52.742;16.962;2022-10-30T02:18:16;101321.25;;;15.01;100.00
73679;BME280;61978;52.742;16.962;2022-10-30T02:20:42;101326.66;;;15.01;100.00
73679;BME280;61978;52.742;16.962;2022-10-30T02:23:09;101329.55;;;14.93;100.00
73679;BME280;61978;52.742;16.962;2022-10-30T02:25:38;101330.53;;;14.85;100.00
73679;BME280;61978;52.742;16.962;2022-10-30T02:28:05;101328.48;;;14.87;100.00
73679;BME280;61978;52.742;16.962;2022-10-30T02:30:32;101332.22;;;14.86;100.00
73679;BME280;61978;52.742;16.962;2022-10-30T02:33:00;101332.80;;;14.75;100.00
73679;BME280;61978;52.742;16.962;2022-10-30T02:35:26;101337.20;;;14.66;100.00
73679;BME280;61978;52.742;16.962;2022-10-30T02:37:53;101329.72;;;14.68;100.00
73679;BME280;61978;52.742;16.962;2022-10-30T02:40:20;101328.37;;;14.68;100.00
73679;BME280;61978;52.742;16.962;2022-10-30T02:42:51;101334.50;;;14.66;100.00
73679;BME280;61978;52.742;16.962;2022-10-30T02:45:18;101327.67;;;14.70;100.00
73679;BME280;61978;52.742;16.962;2022-10-30T02:47:46;101329.78;;;14.57;100.00
73679;BME280;61978;52.742;16.962;2022-10-30T02:50:13;101346.28;;;14.52;100.00
73679;BME280;61978;52.742;16.962;2022-10-30T02:52:40;101346.52;;;14.57;100.00
73679;BME280;61978;52.742;16.962;2022-10-30T02:55:07;101338.52;;;14.59;100.00
73679;BME280;61978;52.742;16.962;2022-10-30T02:57:35;101337.67;;;14.59;100.00
73679;BME280;61978;52.742;16.962;2022-10-30T03:00:02;101332.37;;;14.61;100.00
73679;BME280;61978;52.742;16.962;2022-10-30T03:02:28;101329.56;;;14.59;100.00
73679;BME280;61978;52.742;16.962;2022-10-30T03:04:55;101328.45;;;14.46;100.00
73679;BME280;61978;52.742;16.962;2022-10-30T03:07:22;101338.27;;;14.26;100.00
73679;BME280;61978;52.742;16.962;2022-10-30T03:09:49;101336.41;;;14.27;100.00
73679;BME280;61978;52.742;16.962;2022-10-30T03:12:17;101338.09;;;14.28;100.00
73679;BME280;61978;52.742;16.962;2022-10-30T03:14:44;101339.00;;;14.14;100.00
73679;BME280;61978;52.742;16.962;2022-10-30T03:17:10;101329.39;;;13.94;100.00
73679;BME280;61978;52.742;16.962;2022-10-30T03:19:38;101340.73;;;13.83;100.00
73679;BME280;61978;52.742;16.962;2022-10-30T03:22:06;101340.45;;;13.78;100.00
73679;BME280;61978;52.742;16.962;2022-10-30T03:24:33;101338.33;;;13.84;100.00
73679;BME280;61978;52.742;16.962;2022-10-30T03:27:00;101339.86;;;13.93;100.00
73679;BME280;61978;52.742;16.962;2022-10-30T03:29:28;101332.91;;;14.05;100.00
73679;BME280;61978;52.742;16.962;2022-10-30T03:31:55;101326.81;;;14.07;100.00
73679;BME280;61978;52.742;16.962;2022-10-30T03:34:22;101330.77;;;14.11;100.00
73679;BME280;61978;52.742;16.962;2022-10-30T03:36:49;101330.20;;;14.16;100.00
73679;BME280;61978;52.742;16.962;2022-10-30T03:39:16;101324.68;;;14.13;100.00
73679;BME280;61978;52.742;16.962;2022-10-30T03:41:44;101321.44;;;14.14;100.00
73679;BME280;61978;52.742;16.962;2022-10-30T03:44:11;101324.91;;;14.18;100.00
73679;BME280;61978;52.742;16.962;2022-10-30T03:46:38;101334.38;;;14.18;100.00
73679;BME280;61978;52.742;16.962;2022-10-30T03:49:07;101328.24;;;14.20;100.00
73679;BME280;61978;52.742;16.962;2022-10-30T03:51:34;101332.47;;;14.29;100.00
73679;BME280;61978;52.742;16.962;2022-10-30T03:54:02;101324.56;;;14.38;100.00
73679;BME280;61978;52.742;16.962;2022-10-30T03:56:29;101327.20;;;14.42;100.00
73679;BME280;61978;52.742;16.962;2022-10-30T03:58:58;101324.69;;;14.30;100.00
73679;BME280;61978;52.742;16.962;2022-10-30T04:01:24;101322.56;;;14.26;100.00
73679;BME280;61978;52.742;16.962;2022-10-30T04:03:53;101316.25;;;14.29;100.00
73679;BME280;61978;52.742;16.962;2022-10-30T04:06:20;101314.73;;;14.20;100.00
73679;BME280;61978;52.742;16.962;2022-10-30T04:08:47;101313.61;;;14.08;100.00
73679;BME280;61978;52.742;16.962;2022-10-30T04:11:14;101314.72;;;14.03;100.00
73679;BME280;61978;52.742;16.962;2022-10-30T04:13:41;101307.06;;;13.96;100.00
73679;BME280;61978;52.742;16.962;2022-10-30T04:16:08;101309.77;;;13.96;100.00
73679;BME280;61978;52.742;16.962;2022-10-30T04:18:34;101317.14;;;14.09;100.00
73679;BME280;61978;52.742;16.962;2022-10-30T04:21:02;101303.92;;;14.20;100.00
73679;BME280;61978;52.742;16.962;2022-10-30T04:23:30;101306.86;;;14.25;100.00
73679;BME280;61978;52.742;16.962;2022-10-30T04:25:59;101304.55;;;14.22;100.00
73679;BME280;61978;52.742;16.962;2022-10-30T04:28:27;101305.11;;;14.28;100.00
73679;BME280;61978;52.742;16.962;2022-10-30T04:30:55;101307.13;;;14.30;100.00
73679;BME280;61978;52.742;16.962;2022-10-30T04:33:22;101305.78;;;14.30;100.00
73679;BME280;61978;52.742;16.962;2022-10-30T04:35:48;101303.38;;;14.31;100.00
73679;BME280;61978;52.742;16.962;2022-10-30T04:38:17;101311.77;;;14.36;100.00
73679;BME280;61978;52.742;16.962;2022-10-30T04:40:44;101315.33;;;14.43;100.00
73679;BME280;61978;52.742;16.962;2022-10-30T04:43:12;101309.53;;;14.46;100.00
73679;BME280;61978;52.742;16.962;2022-10-30T04:45:40;101311.95;;;14.52;100.00
73679;BME280;61978;52.742;16.962;2022-10-30T04:48:10;101319.22;;;14.34;100.00
73679;BME280;61978;52.742;16.962;2022-10-30T04:50:37;101314.45;;;14.26;100.00
73679;BME280;61978;52.742;16.962;2022-10-30T04:53:06;101316.98;;;14.27;100.00
73679;BME280;61978;52.742;16.962;2022-10-30T04:55:34;101319.55;;;14.35;100.00
73679;BME280;61978;52.742;16.962;2022-10-30T04:58:01;101312.07;;;14.37;100.00
73679;BME280;61978;52.742;16.962;2022-10-30T05:00:34;101311.61;;;14.44;100.00
73679;BME280;61978;52.742;16.962;2022-10-30T05:03:08;101304.67;;;14.46;100.00
73679;BME280;61978;52.742;16.962;2022-10-30T05:05:37;101306.66;;;14.37;100.00
73679;BME280;61978;52.742;16.962;2022-10-30T05:08:04;101304.62;;;14.39;100.00
73679;BME280;61978;52.742;16.962;2022-10-30T05:10:31;101291.62;;;14.39;100.00
73679;BME280;61978;52.742;16.962;2022-10-30T05:12:58;101290.99;;;14.37;100.00
73679;BME280;61978;52.742;16.962;2022-10-30T05:15:26;101298.27;;;14.36;100.00
73679;BME280;61978;52.742;16.962;2022-10-30T05:17:53;101303.14;;;14.26;100.00
73679;BME280;61978;52.742;16.962;2022-10-30T05:20:20;101300.78;;;14.17;100.00
73679;BME280;61978;52.742;16.962;2022-10-30T05:22:54;101299.58;;;14.19;100.00
73679;BME280;61978;52.742;16.962;2022-10-30T05:25:22;101302.19;;;14.23;100.00
73679;BME280;61978;52.742;16.962;2022-10-30T05:27:49;101278.20;;;14.59;100.00
73679;BME280;61978;52.742;16.962;2022-10-30T05:30:17;101296.22;;;14.17;100.00
73679;BME280;61978;52.742;16.962;2022-10-30T05:32:43;101298.73;;;14.19;100.00
73679;BME280;61978;52.742;16.962;2022-10-30T05:35:10;101304.37;;;14.24;100.00
73679;BME280;61978;52.742;16.962;2022-10-30T05:37:37;101308.55;;;14.26;100.00
73679;BME280;61978;52.742;16.962;2022-10-30T05:40:04;101308.55;;;14.26;100.00
73679;BME280;61978;52.742;16.962;2022-10-30T05:42:31;101320.52;;;14.28;100.00
73679;BME280;61978;52.742;16.962;2022-10-30T05:44:59;101321.33;;;14.28;100.00
73679;BME280;61978;52.742;16.962;2022-10-30T05:47:26;101325.78;;;14.25;100.00
73679;BME280;61978;52.742;16.962;2022-10-30T05:49:53;101326.61;;;14.26;100.00
73679;BME280;61978;52.742;16.962;2022-10-30T05:52:21;101329.65;;;14.27;100.00
73679;BME280;61978;52.742;16.962;2022-10-30T05:54:48;101325.98;;;14.24;100.00
73679;BME280;61978;52.742;16.962;2022-10-30T05:57:16;101321.72;;;14.25;100.00
73679;BME280;61978;52.742;16.962;2022-10-30T05:59:43;101321.02;;;14.10;100.00
73679;BME280;61978;52.742;16.962;2022-10-30T06:02:09;101322.38;;;14.00;100.00
73679;BME280;61978;52.742;16.962;2022-10-30T06:04:36;101322.58;;;13.98;100.00
73679;BME280;61978;52.742;16.962;2022-10-30T06:07:04;101331.95;;;14.02;100.00
73679;BME280;61978;52.742;16.962;2022-10-30T06:09:31;101330.11;;;13.92;100.00
73679;BME280;61978;52.742;16.962;2022-10-30T06:11:59;101333.59;;;13.86;100.00
73679;BME280;61978;52.742;16.962;2022-10-30T06:14:27;101323.42;;;13.88;100.00
73679;BME280;61978;52.742;16.962;2022-10-30T06:16:54;101333.26;;;13.85;100.00
73679;BME280;61978;52.742;16.962;2022-10-30T06:19:34;101328.64;;;13.79;100.00
73679;BME280;61978;52.742;16.962;2022-10-30T06:22:05;101319.81;;;13.81;100.00
73679;BME280;61978;52.742;16.962;2022-10-30T06:24:43;101329.98;;;13.79;100.00
73679;BME280;61978;52.742;16.962;2022-10-30T06:27:27;101326.75;;;13.90;100.00
73679;BME280;61978;52.742;16.962;2022-10-30T06:29:54;101328.44;;;13.91;100.00
73679;BME280;61978;52.742;16.962;2022-10-30T06:32:20;101324.20;;;13.93;100.00
73679;BME280;61978;52.742;16.962;2022-10-30T06:34:48;101323.48;;;13.95;100.00
73679;BME280;61978;52.742;16.962;2022-10-30T06:37:16;101326.23;;;13.90;100.00
73679;BME280;61978;52.742;16.962;2022-10-30T06:39:43;101317.96;;;13.92;100.00
73679;BME280;61978;52.742;16.962;2022-10-30T06:42:18;101321.47;;;14.03;100.00
73679;BME280;61978;52.742;16.962;2022-10-30T06:44:46;101319.75;;;14.23;100.00
73679;BME280;61978;52.742;16.962;2022-10-30T06:47:15;101324.36;;;14.29;100.00
73679;BME280;61978;52.742;16.962;2022-10-30T06:49:41;101327.64;;;14.46;100.00
73679;BME280;61978;52.742;16.962;2022-10-30T06:52:09;101330.97;;;14.48;100.00
73679;BME280;61978;52.742;16.962;2022-10-30T06:54:36;101335.58;;;14.54;100.00
73679;BME280;61978;52.742;16.962;2022-10-30T06:57:22;101337.12;;;14.53;100.00
73679;BME280;61978;52.742;16.962;2022-10-30T07:00:06;101333.84;;;14.57;100.00
73679;BME280;61978;52.742;16.962;2022-10-30T07:02:36;101333.91;;;14.53;100.00
73679;BME280;61978;52.742;16.962;2022-10-30T07:05:05;101330.22;;;14.61;100.00
73679;BME280;61978;52.742;16.962;2022-10-30T07:07:32;101329.77;;;14.74;100.00
73679;BME280;61978;52.742;16.962;2022-10-30T07:10:00;101327.54;;;14.91;100.00
73679;BME280;61978;52.742;16.962;2022-10-30T07:12:37;101331.99;;;15.12;100.00
73679;BME280;61978;52.742;16.962;2022-10-30T07:15:11;101332.16;;;15.27;100.00
73679;BME280;61978;52.742;16.962;2022-10-30T07:17:50;101336.97;;;15.38;100.00
73679;BME280;61978;52.742;16.962;2022-10-30T07:20:17;101341.64;;;15.58;100.00
73679;BME280;61978;52.742;16.962;2022-10-30T07:22:45;101342.26;;;15.60;100.00
73679;BME280;61978;52.742;16.962;2022-10-30T07:25:11;101341.23;;;15.61;100.00
73679;BME280;61978;52.742;16.962;2022-10-30T07:27:50;101333.11;;;15.61;100.00
73679;BME280;61978;52.742;16.962;2022-10-30T07:30:28;101331.78;;;15.74;100.00
73679;BME280;61978;52.742;16.962;2022-10-30T07:33:12;101331.16;;;15.85;100.00
73679;BME280;61978;52.742;16.962;2022-10-30T07:35:46;101329.91;;;15.94;100.00
73679;BME280;61978;52.742;16.962;2022-10-30T07:38:15;101331.38;;;16.03;100.00
73679;BME280;61978;52.742;16.962;2022-10-30T07:40:50;101331.25;;;16.07;100.00
73679;BME280;61978;52.742;16.962;2022-10-30T07:43:16;101329.38;;;16.14;100.00
73679;BME280;61978;52.742;16.962;2022-10-30T07:45:47;101328.64;;;16.29;100.00
73679;BME280;61978;52.742;16.962;2022-10-30T07:48:16;101323.22;;;16.36;100.00
73679;BME280;61978;52.742;16.962;2022-10-30T07:50:47;101318.82;;;16.41;100.00
73679;BME280;61978;52.742;16.962;2022-10-30T07:53:13;101321.81;;;16.49;100.00
73679;BME280;61978;52.742;16.962;2022-10-30T07:55:41;101312.95;;;16.57;100.00
73679;BME280;61978;52.742;16.962;2022-10-30T07:58:27;101313.36;;;16.68;100.00
73679;BME280;61978;52.742;16.962;2022-10-30T08:01:14;101311.98;;;16.74;100.00
73679;BME280;61978;52.742;16.962;2022-10-30T08:03:41;101312.34;;;16.84;100.00
73679;BME280;61978;52.742;16.962;2022-10-30T08:06:10;101308.80;;;16.84;100.00
73679;BME280;61978;52.742;16.962;2022-10-30T08:08:37;101303.22;;;17.01;100.00
73679;BME280;61978;52.742;16.962;2022-10-30T08:11:11;101310.73;;;17.21;100.00
73679;BME280;61978;52.742;16.962;2022-10-30T08:13:38;101303.25;;;17.32;100.00
73679;BME280;61978;52.742;16.962;2022-10-30T08:16:05;101311.56;;;17.37;100.00
73679;BME280;61978;52.742;16.962;2022-10-30T08:18:32;101308.69;;;17.54;100.00
73679;BME280;61978;52.742;16.962;2022-10-30T08:21:01;101313.84;;;17.62;100.00
73679;BME280;61978;52.742;16.962;2022-10-30T08:23:27;101309.25;;;17.79;100.00
73679;BME280;61978;52.742;16.962;2022-10-30T08:25:56;101313.04;;;17.87;100.00
73679;BME280;61978;52.742;16.962;2022-10-30T08:28:25;101310.64;;;17.97;100.00
73679;BME280;61978;52.742;16.962;2022-10-30T08:30:53;101309.75;;;18.03;100.00
73679;BME280;61978;52.742;16.962;2022-10-30T08:33:22;101308.13;;;18.11;100.00
73679;BME280;61978;52.742;16.962;2022-10-30T08:36:00;101306.11;;;18.24;100.00
73679;BME280;61978;52.742;16.962;2022-10-30T08:38:28;101316.62;;;18.30;100.00
73679;BME280;61978;52.742;16.962;2022-10-30T08:41:00;101321.22;;;18.29;100.00
73679;BME280;61978;52.742;16.962;2022-10-30T08:43:27;101316.98;;;18.49;100.00
73679;BME280;61978;52.742;16.962;2022-10-30T08:45:58;101324.98;;;18.53;100.00
73679;BME280;61978;52.742;16.962;2022-10-30T08:48:25;101320.17;;;18.64;100.00
73679;BME280;61978;52.742;16.962;2022-10-30T08:50:57;101315.11;;;18.50;100.00
73679;BME280;61978;52.742;16.962;2022-10-30T08:53:27;101323.58;;;18.44;100.00
73679;BME280;61978;52.742;16.962;2022-10-30T08:55:54;101318.14;;;18.44;100.00
73679;BME280;61978;52.742;16.962;2022-10-30T08:58:29;101319.95;;;18.41;100.00
73679;BME280;61978;52.742;16.962;2022-10-30T09:00:56;101326.16;;;18.39;100.00
73679;BME280;61978;52.742;16.962;2022-10-30T09:03:24;101324.25;;;18.55;100.00
73679;BME280;61978;52.742;16.962;2022-10-30T09:06:10;101336.19;;;18.63;100.00
73679;BME280;61978;52.742;16.962;2022-10-30T09:08:54;101328.80;;;18.70;100.00
73679;BME280;61978;52.742;16.962;2022-10-30T09:11:38;101329.70;;;18.82;100.00
73679;BME280;61978;52.742;16.962;2022-10-30T09:14:04;101335.05;;;18.80;100.00
73679;BME280;61978;52.742;16.962;2022-10-30T09:16:31;101328.86;;;18.91;100.00
73679;BME280;61978;52.742;16.962;2022-10-30T09:18:57;101328.77;;;18.88;100.00
73679;BME280;61978;52.742;16.962;2022-10-30T09:21:24;101328.02;;;19.00;100.00
73679;BME280;61978;52.742;16.962;2022-10-30T09:23:51;101329.06;;;19.08;100.00
73679;BME280;61978;52.742;16.962;2022-10-30T09:26:35;101330.80;;;19.11;100.00
73679;BME280;61978;52.742;16.962;2022-10-30T09:29:10;101330.40;;;19.26;100.00
73679;BME280;61978;52.742;16.962;2022-10-30T09:31:55;101337.55;;;19.00;100.00
73679;BME280;61978;52.742;16.962;2022-10-30T09:34:23;101339.19;;;19.01;100.00
73679;BME280;61978;52.742;16.962;2022-10-30T09:36:55;101336.26;;;19.02;100.00
73679;BME280;61978;52.742;16.962;2022-10-30T09:39:21;101331.33;;;19.11;100.00
73679;BME280;61978;52.742;16.962;2022-10-30T09:45:08;101322.83;;;19.19;100.00
73679;BME280;61978;52.742;16.962;2022-10-30T09:47:43;101328.13;;;19.41;100.00
73679;BME280;61978;52.742;16.962;2022-10-30T09:50:30;101314.27;;;19.63;100.00
73679;BME280;61978;52.742;16.962;2022-10-30T09:53:11;101314.72;;;19.81;100.00
73679;BME280;61978;52.742;16.962;2022-10-30T09:55:52;101316.52;;;19.98;100.00
73679;BME280;61978;52.742;16.962;2022-10-30T10:01:08;101315.83;;;20.03;100.00
73679;BME280;61978;52.742;16.962;2022-10-30T10:04:00;101313.93;;;19.92;100.00
73679;BME280;61978;52.742;16.962;2022-10-30T10:06:33;101307.16;;;20.27;100.00
73679;BME280;61978;52.742;16.962;2022-10-30T10:09:20;101305.41;;;20.12;100.00
73679;BME280;61978;52.742;16.962;2022-10-30T10:12:05;101303.51;;;20.24;100.00
73679;BME280;61978;52.742;16.962;2022-10-30T10:14:37;101298.69;;;20.17;100.00
73679;BME280;61978;52.742;16.962;2022-10-30T10:17:09;101290.78;;;20.38;100.00
73679;BME280;61978;52.742;16.962;2022-10-30T10:19:40;101302.08;;;19.98;100.00
73679;BME280;61978;52.742;16.962;2022-10-30T10:24:54;101283.58;;;20.12;100.00
73679;BME280;61978;52.742;16.962;2022-10-30T10:27:40;101284.42;;;20.12;100.00
73679;BME280;61978;52.742;16.962;2022-10-30T10:35:42;101282.80;;;19.90;100.00
73679;BME280;61978;52.742;16.962;2022-10-30T10:49:07;101260.39;;;20.46;100.00
73679;BME280;61978;52.742;16.962;2022-10-30T10:51:41;101247.86;;;20.60;100.00
73679;BME280;61978;52.742;16.962;2022-10-30T10:54:11;101250.25;;;20.70;100.00
73679;BME280;61978;52.742;16.962;2022-10-30T10:56:40;101244.44;;;20.78;100.00
73679;BME280;61978;52.742;16.962;2022-10-30T10:59:13;101248.13;;;20.72;100.00
73679;BME280;61978;52.742;16.962;2022-10-30T11:01:47;101250.46;;;20.66;100.00
73679;BME280;61978;52.742;16.962;2022-10-30T11:06:50;101253.19;;;20.66;100.00
73679;BME280;61978;52.742;16.962;2022-10-30T11:09:19;101244.34;;;20.87;100.00
73679;BME280;61978;52.742;16.962;2022-10-30T11:11:48;101251.17;;;20.76;100.00
73679;BME280;61978;52.742;16.962;2022-10-30T11:14:23;101237.21;;;20.86;100.00
73679;BME280;61978;52.742;16.962;2022-10-30T11:19:29;101237.30;;;20.77;100.00
73679;BME280;61978;52.742;16.962;2022-10-30T11:21:58;101235.23;;;20.70;100.00
73679;BME280;61978;52.742;16.962;2022-10-30T11:24:33;101239.67;;;20.60;100.00
73679;BME280;61978;52.742;16.962;2022-10-30T11:27:22;101231.75;;;20.72;100.00
73679;BME280;61978;52.742;16.962;2022-10-30T11:29:53;101226.29;;;20.86;100.00
73679;BME280;61978;52.742;16.962;2022-10-30T11:32:21;101226.95;;;20.93;100.00
73679;BME280;61978;52.742;16.962;2022-10-30T11:37:37;101222.98;;;20.98;100.00
73679;BME280;61978;52.742;16.962;2022-10-30T11:42:48;101224.63;;;21.11;100.00
73679;BME280;61978;52.742;16.962;2022-10-30T11:45:23;101232.38;;;21.17;100.00
73679;BME280;61978;52.742;16.962;2022-10-30T11:47:53;101232.53;;;21.27;100.00
73679;BME280;61978;52.742;16.962;2022-10-30T11:50:30;101229.61;;;21.31;100.00
73679;BME280;61978;52.742;16.962;2022-10-30T11:53:09;101229.42;;;21.35;100.00
73679;BME280;61978;52.742;16.962;2022-10-30T11:55:35;101230.78;;;21.26;100.00
73679;BME280;61978;52.742;16.962;2022-10-30T11:58:04;101230.78;;;21.21;100.00
73679;BME280;61978;52.742;16.962;2022-10-30T12:00:34;101226.58;;;21.30;100.00
73679;BME280;61978;52.742;16.962;2022-10-30T12:03:01;101221.27;;;21.37;100.00
73679;BME280;61978;52.742;16.962;2022-10-30T12:05:38;101223.55;;;21.43;100.00
73679;BME280;61978;52.742;16.962;2022-10-30T12:10:43;101212.94;;;21.63;100.00
73679;BME280;61978;52.742;16.962;2022-10-30T12:13:14;101220.54;;;21.58;100.00
73679;BME280;61978;52.742;16.962;2022-10-30T12:15:42;101226.23;;;21.57;100.00
73679;BME280;61978;52.742;16.962;2022-10-30T12:18:21;101227.03;;;21.55;100.00
73679;BME280;61978;52.742;16.962;2022-10-30T12:20:55;101226.92;;;21.50;100.00
73679;BME280;61978;52.742;16.962;2022-10-30T12:23:23;101222.55;;;21.49;100.00
73679;BME280;61978;52.742;16.962;2022-10-30T12:25:53;101211.25;;;21.43;100.00
73679;BME280;61978;52.742;16.962;2022-10-30T12:28:22;101213.83;;;21.35;100.00
73679;BME280;61978;52.742;16.962;2022-10-30T12:31:12;101201.67;;;21.59;100.00
73679;BME280;61978;52.742;16.962;2022-10-30T12:36:24;101204.74;;;21.63;100.00
73679;BME280;61978;52.742;16.962;2022-10-30T12:38:54;101209.22;;;21.69;100.00
73679;BME280;61978;52.742;16.962;2022-10-30T12:44:15;101209.34;;;21.60;100.00
73679;BME280;61978;52.742;16.962;2022-10-30T12:49:51;101197.15;;;21.84;100.00
73679;BME280;61978;52.742;16.962;2022-10-30T12:55:04;101182.22;;;22.08;100.00
73679;BME280;61978;52.742;16.962;2022-10-30T12:57:36;101192.30;;;22.05;100.00
73679;BME280;61978;52.742;16.962;2022-10-30T13:00:09;101191.14;;;22.01;100.00
73679;BME280;61978;52.742;16.962;2022-10-30T13:08:22;101182.81;;;22.13;100.00
73679;BME280;61978;52.742;16.962;2022-10-30T13:10:55;101175.03;;;22.46;100.00
73679;BME280;61978;52.742;16.962;2022-10-30T13:13:26;101181.07;;;22.48;100.00
73679;BME280;61978;52.742;16.962;2022-10-30T13:15:55;101166.05;;;22.72;100.00
73679;BME280;61978;52.742;16.962;2022-10-30T13:18:23;101171.33;;;22.57;100.00
73679;BME280;61978;52.742;16.962;2022-10-30T13:21:19;101163.97;;;22.60;100.00
73679;BME280;61978;52.742;16.962;2022-10-30T13:26:30;101161.19;;;22.55;100.00
73679;BME280;61978;52.742;16.962;2022-10-30T13:31:59;101155.50;;;22.37;100.00
73679;BME280;61978;52.742;16.962;2022-10-30T13:34:36;101152.48;;;22.60;100.00
73679;BME280;61978;52.742;16.962;2022-10-30T13:37:52;101159.60;;;22.37;100.00
73679;BME280;61978;52.742;16.962;2022-10-30T13:39:40;101152.38;;;22.50;100.00
73679;BME280;61978;52.742;16.962;2022-10-30T13:42:32;101151.36;;;22.56;100.00
73679;BME280;61978;52.742;16.962;2022-10-30T13:45:23;101149.33;;;22.47;100.00
73679;BME280;61978;52.742;16.962;2022-10-30T13:50:43;101155.52;;;22.40;100.00
73679;BME280;61978;52.742;16.962;2022-10-30T13:53:14;101155.69;;;22.31;100.00
73679;BME280;61978;52.742;16.962;2022-10-30T13:55:41;101149.30;;;22.23;100.00
73679;BME280;61978;52.742;16.962;2022-10-30T13:58:15;101150.07;;;22.18;100.00
73679;BME280;61978;52.742;16.962;2022-10-30T14:03:49;101135.47;;;22.12;100.00
73679;BME280;61978;52.742;16.962;2022-10-30T14:09:33;101131.16;;;22.17;100.00
73679;BME280;61978;52.742;16.962;2022-10-30T14:12:42;101135.31;;;22.22;100.00
73679;BME280;61978;52.742;16.962;2022-10-30T14:14:30;101130.00;;;22.12;100.00
73679;BME280;61978;52.742;16.962;2022-10-30T14:22:23;101132.82;;;21.79;100.00